createdAt,value
2022-09-05T00:02:32.415Z,3.50
2022-09-05T00:05:16.955Z,3.17
2022-09-05T00:08:19.797Z,3.25
2022-09-05T00:11:41.346Z,3.35
2022-09-05T00:15:17.464Z,3.30
2022-09-05T00:19:30.503Z,3.20
2022-09-05T00:24:21.282Z,3.25
2022-09-05T00:24:31.665Z,3.10
2022-09-05T00:27:15.519Z,3.08
2022-09-05T00:31:08.779Z,3.28
2022-09-05T00:33:36.201Z,3.80
2022-09-05T00:36:37.204Z,3.55
2022-09-05T00:39:11.213Z,3.30
2022-09-05T00:41:39.263Z,3.58
2022-09-05T00:44:07.769Z,3.47
2022-09-05T00:46:43.112Z,4.13
2022-09-05T00:49:27.913Z,3.67
2022-09-05T00:52:05.379Z,3.70
2022-09-05T00:54:41.009Z,3.78
2022-09-05T00:57:50.289Z,4.20
2022-09-05T01:00:56.467Z,4.20
2022-09-05T01:03:52.187Z,4.03
2022-09-05T01:07:11.658Z,3.60
2022-09-05T01:10:03.206Z,3.70
2022-09-05T01:13:01.701Z,3.90
2022-09-05T01:16:05.536Z,3.85
2022-09-05T01:18:47.546Z,3.72
2022-09-05T01:21:32.653Z,3.90
2022-09-05T01:24:28.391Z,3.63
2022-09-05T01:27:31.434Z,3.90
2022-09-05T01:30:52.507Z,4.00
2022-09-05T01:33:56.142Z,4.40
2022-09-05T01:36:42.636Z,4.18
2022-09-05T01:40:12.072Z,4.93
2022-09-05T01:45:51.077Z,4.38
2022-09-05T01:48:30.288Z,4.43
2022-09-05T01:51:33.593Z,4.85
2022-09-05T01:54:25.730Z,4.45
2022-09-05T01:57:10.476Z,4.40
2022-09-05T02:00:03.864Z,4.95
2022-09-05T02:02:50.385Z,4.70
2022-09-05T02:05:48.518Z,4.75
2022-09-05T02:08:28.369Z,4.80
2022-09-05T02:11:12.924Z,4.63
2022-09-05T02:13:53.510Z,4.90
2022-09-05T02:16:38.111Z,4.47
2022-09-05T02:19:11.035Z,4.93
2022-09-05T02:22:10.455Z,4.82
2022-09-05T02:24:45.178Z,4.70
2022-09-05T02:28:04.498Z,4.90
2022-09-05T02:30:51.698Z,4.53
2022-09-05T02:33:38.203Z,4.97
2022-09-05T02:36:31.064Z,4.68
2022-09-05T02:45:00.296Z,5.00
2022-09-05T02:45:15.332Z,4.55
2022-09-05T02:46:09.233Z,4.88
2022-09-05T02:49:01.950Z,4.82
2022-09-05T02:57:24.835Z,5.18
2022-09-05T02:57:34.883Z,5.07
2022-09-05T02:58:26.318Z,5.00
2022-09-05T03:01:23.219Z,5.53
2022-09-05T03:07:33.842Z,5.35
2022-09-05T03:10:29.550Z,5.65
2022-09-05T03:13:54.222Z,5.30
2022-09-05T03:16:47.303Z,5.45
2022-09-05T03:19:46.698Z,5.65
2022-09-05T03:23:19.689Z,5.65
2022-09-05T03:26:25.993Z,5.20
2022-09-05T03:29:43.036Z,5.60
2022-09-05T03:32:49.013Z,5.75
2022-09-05T03:36:06.397Z,5.80
2022-09-05T03:39:33.950Z,6.28
2022-09-05T03:42:53.531Z,6.13
2022-09-05T03:45:43.402Z,5.45
2022-09-05T03:48:40.648Z,6.35
2022-09-05T03:57:04.308Z,5.85
2022-09-05T03:57:26.006Z,5.55
2022-09-05T03:57:46.438Z,5.82
2022-09-05T04:01:11.008Z,5.45
2022-09-05T04:08:16.718Z,5.95
2022-09-05T04:09:53.827Z,6.30
2022-09-05T04:12:50.103Z,5.70
2022-09-05T04:15:35.449Z,5.90
2022-09-05T04:18:13.388Z,6.22
2022-09-05T04:20:55.199Z,6.10
2022-09-05T04:23:42.005Z,6.38
2022-09-05T04:26:37.839Z,6.30
2022-09-05T04:29:38.381Z,6.10
2022-09-05T04:32:31.868Z,6.20
2022-09-05T04:35:20.441Z,6.25
2022-09-05T04:38:15.971Z,6.68
2022-09-05T04:41:03.477Z,6.63
2022-09-05T04:43:51.980Z,6.43
2022-09-05T04:46:48.928Z,6.22
2022-09-05T04:49:31.297Z,6.70
2022-09-05T04:52:39.856Z,6.47
2022-09-05T04:55:10.489Z,7.00
2022-09-05T04:57:59.824Z,6.97
2022-09-05T05:03:05.594Z,6.45
2022-09-05T05:06:11.749Z,7.13
2022-09-05T05:06:43.990Z,7.15
2022-09-05T05:09:34.244Z,6.93
2022-09-05T05:17:56.453Z,6.70
2022-09-05T05:18:11.817Z,6.68
2022-09-05T05:18:59.630Z,6.65
2022-09-05T05:21:31.842Z,6.65
2022-09-05T05:24:14.433Z,7.18
2022-09-05T05:26:57.136Z,7.47
2022-09-05T05:30:07.091Z,6.88
2022-09-05T05:32:45.958Z,6.90
2022-09-05T05:35:20.735Z,6.85
2022-09-05T05:38:27.413Z,6.90
2022-09-05T05:41:05.501Z,6.82
2022-09-05T05:43:46.058Z,6.90
2022-09-05T05:46:31.685Z,6.93
2022-09-05T05:49:37.084Z,7.13
2022-09-05T05:52:34.914Z,7.60
2022-09-05T05:55:50.365Z,6.45
2022-09-05T05:58:32.919Z,7.45
2022-09-05T06:01:40.430Z,6.90
2022-09-05T06:09:25.457Z,7.82
2022-09-05T06:14:50.946Z,7.47
2022-09-05T06:15:05.738Z,7.07
2022-09-05T06:18:07.411Z,7.32
2022-09-05T06:22:09.575Z,7.68
2022-09-05T06:24:21.422Z,7.40
2022-09-05T06:27:16.807Z,7.50
2022-09-05T06:30:08.840Z,7.40
2022-09-05T06:33:13.252Z,6.78
2022-09-05T06:35:59.070Z,7.43
2022-09-05T06:39:24.720Z,7.43
2022-09-05T06:42:28.456Z,7.60
2022-09-05T06:45:31.591Z,7.53
2022-09-05T06:48:10.367Z,7.55
2022-09-05T06:51:23.373Z,7.13
2022-09-05T06:54:15.452Z,6.95
2022-09-05T06:57:07.038Z,6.60
2022-09-05T07:00:03.974Z,6.72
2022-09-05T07:03:25.603Z,6.15
2022-09-05T07:07:01.787Z,6.93
2022-09-05T07:09:45.731Z,6.18
2022-09-05T07:12:30.410Z,6.88
2022-09-05T07:15:08.946Z,6.32
2022-09-05T07:18:17.047Z,6.28
2022-09-05T07:21:17.849Z,6.13
2022-09-05T07:24:10.001Z,5.82
2022-09-05T07:26:53.898Z,5.97
2022-09-05T07:29:52.467Z,5.88
2022-09-05T07:32:42.142Z,6.05
2022-09-05T07:35:19.144Z,5.80
2022-09-05T07:38:03.102Z,6.20
2022-09-05T07:40:38.278Z,5.35
2022-09-05T07:43:18.885Z,5.78
2022-09-05T07:46:14.992Z,6.13
2022-09-05T07:48:52.144Z,5.68
2022-09-05T07:55:11.031Z,5.70
2022-09-05T07:56:54.387Z,5.55
2022-09-05T07:57:50.731Z,4.95
2022-09-05T08:00:26.907Z,5.07
2022-09-05T08:03:09.920Z,5.30
2022-09-05T08:05:47.086Z,5.45
2022-09-05T08:08:22.922Z,4.90
2022-09-05T08:11:23.542Z,5.25
2022-09-05T08:14:44.103Z,4.97
2022-09-05T08:17:00.258Z,4.75
2022-09-05T08:19:55.353Z,4.63
2022-09-05T08:22:52.684Z,5.00
2022-09-05T08:25:59.034Z,4.80
2022-09-05T08:28:52.713Z,4.73
2022-09-05T08:31:45.348Z,4.40
2022-09-05T08:34:47.360Z,4.85
2022-09-05T08:37:21.912Z,4.43
2022-09-05T08:40:10.354Z,4.10
2022-09-05T08:46:32.154Z,4.50
2022-09-05T08:46:50.807Z,4.00
2022-09-05T08:50:07.143Z,4.45
2022-09-05T08:52:54.749Z,4.20
2022-09-05T08:56:10.269Z,3.78
2022-09-05T08:58:49.230Z,4.10
2022-09-05T09:02:44.920Z,3.83
2022-09-05T09:05:02.373Z,3.67
2022-09-05T09:07:47.454Z,4.13
2022-09-05T09:10:28.545Z,3.70
2022-09-05T09:13:13.247Z,3.90
2022-09-05T09:16:06.317Z,3.83
2022-09-05T09:18:48.685Z,4.00
2022-09-05T09:21:30.808Z,3.20
2022-09-05T09:24:28.192Z,3.40
2022-09-05T09:27:14.780Z,3.80
2022-09-05T09:29:46.471Z,3.38
2022-09-05T09:32:23.081Z,3.28
2022-09-05T09:35:16.092Z,3.22
2022-09-05T09:38:01.467Z,3.35
2022-09-05T09:41:13.185Z,3.33
2022-09-05T09:44:44.103Z,3.30
2022-09-05T09:47:17.234Z,3.08
2022-09-05T09:50:18.281Z,3.47
2022-09-05T09:53:37.175Z,3.58
2022-09-05T09:56:30.712Z,2.70
2022-09-05T09:59:54.037Z,3.00
2022-09-05T10:07:25.300Z,2.97
2022-09-05T10:10:45.155Z,3.20
2022-09-05T10:10:49.408Z,3.00
2022-09-05T10:13:09.188Z,2.80
2022-09-05T10:16:07.403Z,3.22
2022-09-05T10:19:05.120Z,2.78
2022-09-05T10:25:28.963Z,2.50
2022-09-05T10:28:30.248Z,2.90
2022-09-05T10:33:33.766Z,2.70
2022-09-05T10:35:12.998Z,2.85
2022-09-05T10:37:19.060Z,2.63
2022-09-05T10:39:51.321Z,2.30
2022-09-05T10:42:41.244Z,2.47
2022-09-05T10:45:39.070Z,2.85
2022-09-05T10:48:17.454Z,2.58
2022-09-05T10:50:55.765Z,2.50
2022-09-05T10:53:41.458Z,2.80
2022-09-05T11:01:22.046Z,3.13
2022-09-05T11:02:26.779Z,2.40
2022-09-05T11:05:21.795Z,2.65
2022-09-05T11:08:16.432Z,2.38
2022-09-05T11:11:07.846Z,2.78
2022-09-05T11:13:48.301Z,2.50
2022-09-05T11:16:42.820Z,2.40
2022-09-05T11:19:20.176Z,2.22
2022-09-05T11:22:06.509Z,2.05
2022-09-05T11:25:03.613Z,1.73
2022-09-05T11:27:49.000Z,1.60
2022-09-05T11:39:57.826Z,1.52
2022-09-05T11:39:58.554Z,1.90
2022-09-05T11:40:07.645Z,1.83
2022-09-05T11:42:53.143Z,2.08
2022-09-05T11:45:23.112Z,1.73
2022-09-05T11:48:20.889Z,1.98
2022-09-05T11:51:34.189Z,1.75
2022-09-05T11:54:44.471Z,1.70
2022-09-05T11:57:42.066Z,1.70
2022-09-05T12:00:31.275Z,1.90
2022-09-05T12:03:59.393Z,1.90
2022-09-05T12:07:26.994Z,1.98
2022-09-05T12:10:46.725Z,1.55
2022-09-05T12:14:17.115Z,1.90
2022-09-05T12:17:35.214Z,1.70
2022-09-05T12:20:46.056Z,1.80
2022-09-05T12:23:53.887Z,2.00
2022-09-05T12:27:36.526Z,2.20
2022-09-05T12:29:46.876Z,1.90
2022-09-05T12:34:06.482Z,2.30
2022-09-05T12:36:06.120Z,2.00
2022-09-05T12:40:56.402Z,1.73
2022-09-05T12:41:42.656Z,1.80
2022-09-05T12:44:42.032Z,1.92
2022-09-05T12:47:19.329Z,1.90
2022-09-05T12:50:17.807Z,1.85
2022-09-05T12:52:50.612Z,1.83
2022-09-05T12:55:25.927Z,1.73
2022-09-05T13:02:25.124Z,1.80
2022-09-05T13:03:08.337Z,2.20
2022-09-05T13:04:17.274Z,2.15
2022-09-05T13:06:51.004Z,2.15
2022-09-05T13:10:45.954Z,2.08
2022-09-05T13:14:58.510Z,2.10
2022-09-05T13:15:51.228Z,2.17
2022-09-05T13:21:05.325Z,1.80
2022-09-05T13:24:05.252Z,1.90
2022-09-05T13:26:55.497Z,1.90
2022-09-05T13:29:57.621Z,2.38
2022-09-05T13:38:02.273Z,2.03
2022-09-05T13:38:03.625Z,2.20
2022-09-05T13:41:26.869Z,2.00
2022-09-05T13:44:00.292Z,1.75
2022-09-05T13:46:59.451Z,1.70
2022-09-05T13:49:44.772Z,1.90
2022-09-05T13:52:28.940Z,1.90
2022-09-05T13:55:37.922Z,1.77
2022-09-05T13:58:37.047Z,1.90
2022-09-05T14:01:23.824Z,1.98
2022-09-05T14:07:51.741Z,2.17
2022-09-05T14:11:02.510Z,1.88
2022-09-05T14:13:59.436Z,2.17
2022-09-05T14:16:45.828Z,1.83
2022-09-05T14:19:44.667Z,2.08
2022-09-05T14:22:41.744Z,1.70
2022-09-05T14:25:28.867Z,2.08
2022-09-05T14:28:00.670Z,1.98
2022-09-05T14:33:48.873Z,1.90
2022-09-05T14:37:48.703Z,1.95
2022-09-05T14:38:01.042Z,2.28
2022-09-05T14:39:45.052Z,2.08
2022-09-05T14:42:43.595Z,1.73
2022-09-05T14:45:37.100Z,2.00
2022-09-05T14:48:24.802Z,1.92
2022-09-05T14:50:54.939Z,2.10
2022-09-05T14:57:23.653Z,1.80
2022-09-05T15:02:44.858Z,2.22
2022-09-05T15:02:48.386Z,2.00
2022-09-05T15:05:00.687Z,1.80
2022-09-05T15:07:58.661Z,1.92
2022-09-05T15:12:18.010Z,1.95
2022-09-05T15:13:31.500Z,2.00
2022-09-05T15:16:10.201Z,2.20
2022-09-05T15:18:43.758Z,1.70
2022-09-05T15:21:35.414Z,1.90
2022-09-05T15:24:29.556Z,2.05
2022-09-05T15:27:00.442Z,2.05
2022-09-05T15:29:31.519Z,2.00
2022-09-05T15:32:22.434Z,2.00
2022-09-05T15:34:52.264Z,2.10
2022-09-05T15:37:41.634Z,1.80
2022-09-05T15:40:22.645Z,1.90
2022-09-05T15:43:03.905Z,1.80
2022-09-05T15:45:35.980Z,1.77
2022-09-05T15:48:12.762Z,1.60
2022-09-05T15:50:51.079Z,1.80
2022-09-05T15:53:29.513Z,2.00
2022-09-05T15:56:18.980Z,1.70
2022-09-05T15:58:55.046Z,1.88
2022-09-05T16:01:58.979Z,1.83
2022-09-05T16:10:18.177Z,2.00
2022-09-05T16:10:27.741Z,1.90
2022-09-05T16:10:46.735Z,1.90
2022-09-05T16:13:15.017Z,1.52
2022-09-05T16:18:51.440Z,2.08
2022-09-05T16:23:32.823Z,1.77
2022-09-05T16:23:34.735Z,1.70
2022-09-05T16:25:00.251Z,1.75
2022-09-05T16:27:58.058Z,1.98
2022-09-05T16:30:37.508Z,1.80
2022-09-05T16:33:25.388Z,2.08
2022-09-05T16:36:07.460Z,2.00
2022-09-05T16:38:50.409Z,1.95
2022-09-05T16:41:46.911Z,1.80
2022-09-05T16:47:27.999Z,1.98
2022-09-05T16:50:01.164Z,1.92
2022-09-05T16:52:53.596Z,2.08
2022-09-05T16:55:30.344Z,1.85
2022-09-05T16:58:14.866Z,1.83
2022-09-05T17:01:33.934Z,2.28
2022-09-05T17:04:16.972Z,1.95
2022-09-05T17:07:04.639Z,2.00
2022-09-05T17:09:42.344Z,2.17
2022-09-05T17:12:26.569Z,2.05
2022-09-05T17:15:04.342Z,1.98
2022-09-05T17:18:22.542Z,2.15
2022-09-05T17:20:57.138Z,1.85
2022-09-05T17:29:19.600Z,2.00
2022-09-05T17:29:47.134Z,1.73
2022-09-05T17:32:40.465Z,2.08
2022-09-05T17:35:21.845Z,1.90
2022-09-05T17:38:12.016Z,1.80
2022-09-05T17:41:45.353Z,2.07
2022-09-05T17:44:29.417Z,2.10
2022-09-05T17:47:15.168Z,1.90
2022-09-05T17:49:46.087Z,2.20
2022-09-05T17:52:19.237Z,1.98
2022-09-05T17:54:53.034Z,2.20
2022-09-05T17:57:29.340Z,2.10
2022-09-05T18:00:12.202Z,2.10
2022-09-05T18:02:56.351Z,2.00
2022-09-05T18:06:01.072Z,1.88
2022-09-05T18:08:46.250Z,2.10
2022-09-05T18:11:25.330Z,2.40
2022-09-05T18:14:25.103Z,2.10
2022-09-05T18:17:36.200Z,2.03
2022-09-05T18:19:46.384Z,2.03
2022-09-05T18:22:27.849Z,2.08
2022-09-05T18:28:08.572Z,2.10
2022-09-05T18:30:36.358Z,2.50
2022-09-05T18:33:54.554Z,2.20
2022-09-05T18:35:56.563Z,2.25
2022-09-05T18:38:50.787Z,2.35
2022-09-05T18:41:24.958Z,2.58
2022-09-05T18:44:13.579Z,2.40
2022-09-05T18:46:51.993Z,2.20
2022-09-05T18:50:24.179Z,2.40
2022-09-05T18:52:41.026Z,2.38
2022-09-05T18:56:11.297Z,2.42
2022-09-05T18:58:26.581Z,2.70
2022-09-05T19:00:55.481Z,2.50
2022-09-05T19:03:34.133Z,2.50
2022-09-05T19:06:36.946Z,2.40
2022-09-05T19:09:08.495Z,2.25
2022-09-05T19:11:53.046Z,2.35
2022-09-05T19:14:53.460Z,2.72
2022-09-05T19:17:45.440Z,2.35
2022-09-05T19:20:32.693Z,2.47
2022-09-05T19:23:13.246Z,2.70
2022-09-05T19:25:44.253Z,2.33
2022-09-05T19:36:58.355Z,2.50
2022-09-05T19:37:06.992Z,2.53
2022-09-05T19:37:08.195Z,2.38
2022-09-05T19:37:22.794Z,2.75
2022-09-05T19:46:32.086Z,2.50
2022-09-05T19:47:38.376Z,2.55
2022-09-05T19:47:44.520Z,2.78
2022-09-05T19:50:55.999Z,2.60
2022-09-05T19:53:23.417Z,2.50
2022-09-05T19:55:50.780Z,2.97
2022-09-05T19:58:21.119Z,2.60
2022-09-05T20:01:02.188Z,2.67
2022-09-05T20:03:38.785Z,2.75
2022-09-05T20:06:30.622Z,2.90
2022-09-05T20:09:15.722Z,3.10
2022-09-05T20:11:58.116Z,3.10
2022-09-05T20:14:31.707Z,2.83
2022-09-05T20:17:17.345Z,3.17
2022-09-05T20:19:45.329Z,3.00
2022-09-05T20:22:48.745Z,3.10
2022-09-05T20:25:35.258Z,2.75
2022-09-05T20:28:10.239Z,2.90
2022-09-05T20:30:46.486Z,3.10
2022-09-05T20:34:19.229Z,3.28
2022-09-05T20:43:18.114Z,2.90
2022-09-05T20:43:20.172Z,3.50
2022-09-05T20:43:30.696Z,3.08
2022-09-05T20:45:44.485Z,3.50
2022-09-05T20:54:04.876Z,3.30
2022-09-05T20:54:19.247Z,3.40
2022-09-05T20:54:31.892Z,3.08
2022-09-05T20:56:54.875Z,3.80
2022-09-05T20:59:36.278Z,3.67
2022-09-05T21:02:26.398Z,3.83
2022-09-05T21:05:20.145Z,3.30
2022-09-05T21:07:51.245Z,3.60
2022-09-05T21:10:34.367Z,3.63
2022-09-05T21:13:29.085Z,3.83
2022-09-05T21:15:56.477Z,4.20
2022-09-05T21:18:33.684Z,3.55
2022-09-05T21:21:32.036Z,3.80
2022-09-05T21:24:17.904Z,4.10
2022-09-05T21:26:48.450Z,3.83
2022-09-05T21:29:26.477Z,3.80
2022-09-05T21:32:01.780Z,4.07
2022-09-05T21:34:38.283Z,4.35
2022-09-05T21:37:15.071Z,4.05
2022-09-05T21:40:00.018Z,3.88
2022-09-05T21:44:54.212Z,3.80
2022-09-05T21:47:39.316Z,3.65
2022-09-05T21:48:16.300Z,3.90
2022-09-05T21:50:53.124Z,4.07
2022-09-05T21:58:44.266Z,4.63
2022-09-05T21:59:17.485Z,4.07
2022-09-05T21:59:41.422Z,4.00
2022-09-05T22:02:16.535Z,4.22
2022-09-05T22:04:44.236Z,4.13
2022-09-05T22:07:25.372Z,4.05
2022-09-05T22:10:03.232Z,4.10
2022-09-05T22:12:38.473Z,4.10
2022-09-05T22:15:26.425Z,4.63
2022-09-05T22:17:59.695Z,4.10
2022-09-05T22:20:46.414Z,4.30
2022-09-05T22:23:31.120Z,4.35
2022-09-05T22:25:59.324Z,4.30
2022-09-05T22:28:33.668Z,4.10
2022-09-05T22:31:07.729Z,4.43
2022-09-05T22:33:35.911Z,4.30
2022-09-05T22:36:04.163Z,4.53
2022-09-05T22:38:32.522Z,4.55
2022-09-05T22:40:59.592Z,4.88
2022-09-05T22:43:27.156Z,4.30
2022-09-05T22:45:57.627Z,4.28
2022-09-05T22:48:24.946Z,4.30
2022-09-05T22:50:52.374Z,4.47
2022-09-05T22:53:19.740Z,4.32
2022-09-05T22:55:47.018Z,4.15
2022-09-05T22:58:15.128Z,4.38
2022-09-05T23:00:44.401Z,4.00
2022-09-05T23:03:11.947Z,4.45
2022-09-05T23:05:39.004Z,4.20
2022-09-05T23:08:06.859Z,4.15
2022-09-05T23:10:35.496Z,3.72
2022-09-05T23:13:08.469Z,4.80
2022-09-05T23:15:36.843Z,4.10
2022-09-05T23:18:05.167Z,4.20
2022-09-05T23:20:33.101Z,4.43
2022-09-05T23:23:04.921Z,4.22
2022-09-05T23:25:33.498Z,4.35
2022-09-05T23:28:06.544Z,4.15
2022-09-05T23:30:35.292Z,4.18
2022-09-05T23:33:05.556Z,4.55
2022-09-05T23:35:32.957Z,3.78
2022-09-05T23:37:59.973Z,4.60
2022-09-05T23:40:27.179Z,4.30
2022-09-05T23:43:00.886Z,4.22
2022-09-05T23:45:28.928Z,4.00
2022-09-05T23:47:58.058Z,4.30
2022-09-05T23:50:26.883Z,4.47
2022-09-05T23:52:54.132Z,4.18
2022-09-05T23:55:23.290Z,3.95
2022-09-05T23:57:56.839Z,4.35
